Terminal Aerodrome Forecast
Issued by NWS Grand Forks, ND

Home | Current Version | Previous Version | Text Only | Print | Product List | Glossary On
Versions: 1 2 3 4 5 6 7 8 9 10 11 12 13 14
706
FTUS43 KFGF 061135
TAFFAR
TAF
KFAR 061135Z 0612/0712 19008KT P6SM FEW250
     FM061400 26009KT P6SM BKN250
     FM061600 30012KT P6SM BKN250
     FM061700 33014KT P6SM BKN250
     FM062100 35020G28KT P6SM BKN120
     FM070200 01013KT P6SM SCT250
     FM070300 01009KT P6SM SCT250
     FM070700 35005KT P6SM FEW250=

USA.gov is the U.S. government's official web portal to all federal, state and local government web resources and services.